Time;durP1;ratioP1;P1;durP2;ratioP2;P2;SDS_P1;SDS_P2;PMS_P1;PMS_P2;Temp;Humidity;BMP_temperature;BMP_pressure;BME280_temperature;BME280_humidity;BME280_pressure;Samples;Min_cycle;Max_cycle;Signal;HPM_P1;HPM_P2
2022/04/10 00:01:20;;;;;;;;;;;;;;;;;;5101419;28;19998;-42
2022/04/10 00:03:45;;;;;;;;;;;;;;;;;;5101299;28;20393;-43
2022/04/10 00:06:10;;;;;;;;;;;;;;;;;;5101382;28;19908;-44
2022/04/10 00:08:35;;;;;;;;;;;;;;;;;;5101490;28;19909;-43
2022/04/10 00:11:00;;;;;;;;;;;;;;;;;;5101324;28;19995;-43
2022/04/10 00:13:25;;;;;;;;;;;;;;;;;;5119956;22;20023;-43
2022/04/10 00:15:51;;;;;;;;;;;;;;;;;;5121885;28;19962;-43
2022/04/10 00:18:16;;;;;;;;;;;;;;;;;;5121705;28;19943;-42
2022/04/10 00:20:41;;;;;;;;;;;;;;;;;;5122239;28;19908;-45
2022/04/10 00:23:06;;;;;;;;;;;;;;;;;;5121628;28;19915;-43
2022/04/10 00:25:31;;;;;;;;;;;;;;;;;;5121855;28;20275;-43
2022/04/10 00:27:56;;;;;;;;;;;;;;;;;;5121821;28;20366;-44
2022/04/10 00:30:21;;;;;;;;;;;;;;;;;;5121518;28;19912;-43
2022/04/10 00:32:46;;;;;;;;;;;;;;;;;;5121523;28;19916;-44
2022/04/10 00:35:12;;;;;;;;;;;;;;;;;;5119022;28;19908;-43
2022/04/10 00:37:37;;;;;;;;;;;;;;;;;;5121497;28;20403;-44
2022/04/10 00:40:02;;;;;;;;;;;;;;;;;;5121626;28;19907;-44
2022/04/10 00:42:27;;;;;;;;;;;;;;;;;;5121659;28;20012;-44
2022/04/10 00:44:52;;;;;;;;;;;;;;;;;;5121519;28;19908;-43
2022/04/10 00:47:18;;;;;;;;;;;;;;;;;;5121422;28;19933;-44
2022/04/10 00:49:43;;;;;;;;;;;;;;;;;;5121479;28;20327;-43
2022/04/10 00:52:08;;;;;;;;;;;;;;;;;;5117303;28;19908;-44
2022/04/10 00:54:33;;;;;;;;;;;;;;;;;;5118142;28;19912;-43
2022/04/10 00:57:00;;;;;;;;;;;;;;;;;;5100153;28;20358;-43
2022/04/10 00:59:25;;;;;;;;;;;;;;;;;;5111192;28;19920;-44
2022/04/10 01:01:50;;;;;;;;;;;;;;;;;;5097574;28;19951;-44
2022/04/10 01:04:16;;;;;;;;;;;;;;;;;;5097802;28;20321;-44
2022/04/10 01:06:41;;;;;;;;;;;;;;;;;;5097496;28;20370;-43
2022/04/10 01:09:06;;;;;;;;;;;;;;;;;;5097524;28;19908;-44
2022/04/10 01:11:31;;;;;;;;;;;;;;;;;;5097538;28;19909;-44
2022/04/10 01:13:56;;;;;;;;;;;;;;;;;;5097113;28;19981;-44
2022/04/10 01:16:21;;;;;;;;;;;;;;;;;;5097278;28;19912;-43
2022/04/10 01:18:46;;;;;;;;;;;;;;;;;;5097233;28;19916;-43
2022/04/10 01:21:12;;;;;;;;;;;;;;;;;;5097482;28;19919;-43
2022/04/10 01:23:37;;;;;;;;;;;;;;;;;;5097288;28;19912;-44
2022/04/10 01:26:02;;;;;;;;;;;;;;;;;;5097330;28;20368;-43
2022/04/10 01:28:27;;;;;;;;;;;;;;;;;;5097361;28;19908;-43
2022/04/10 01:30:53;;;;;;;;;;;;;;;;;;5079080;28;19904;-43
2022/04/10 01:33:18;;;;;;;;;;;;;;;;;;5097015;28;19915;-44
2022/04/10 01:35:43;;;;;;;;;;;;;;;;;;5096709;28;19915;-44
2022/04/10 01:38:08;;;;;;;;;;;;;;;;;;5096993;28;19916;-44
2022/04/10 01:40:34;;;;;;;;;;;;;;;;;;5096850;28;20007;-44
2022/04/10 01:42:59;;;;;;;;;;;;;;;;;;5097031;28;19908;-43
2022/04/10 01:45:24;;;;;;;;;;;;;;;;;;5096888;28;20454;-43
2022/04/10 01:47:49;;;;;;;;;;;;;;;;;;5096924;28;19908;-43
2022/04/10 01:50:14;;;;;;;;;;;;;;;;;;5097027;28;19912;-43
2022/04/10 01:52:39;;;;;;;;;;;;;;;;;;5096889;28;19916;-44
2022/04/10 01:55:04;;;;;;;;;;;;;;;;;;5096653;28;19908;-44
2022/04/10 01:57:30;;;;;;;;;;;;;;;;;;5078562;28;19912;-43
2022/04/10 01:59:55;;;;;;;;;;;;;;;;;;5096432;28;19923;-42
2022/04/10 02:02:20;;;;;;;;;;;;;;;;;;5096460;28;20263;-42
2022/04/10 02:04:46;;;;;;;;;;;;;;;;;;5096528;28;19916;-44
2022/04/10 02:07:11;;;;;;;;;;;;;;;;;;5096353;28;19962;-43
2022/04/10 02:09:36;;;;;;;;;;;;;;;;;;5096523;28;19908;-44
2022/04/10 02:12:01;;;;;;;;;;;;;;;;;;5096157;28;19998;-43
2022/04/10 02:14:26;;;;;;;;;;;;;;;;;;5096419;28;20363;-43
2022/04/10 02:16:51;;;;;;;;;;;;;;;;;;5096361;28;19916;-43
2022/04/10 02:19:16;;;;;;;;;;;;;;;;;;5096067;28;19958;-43
2022/04/10 02:21:41;;;;;;;;;;;;;;;;;;5096077;28;19961;-43
2022/04/10 02:24:07;;;;;;;;;;;;;;;;;;5096165;28;19912;-42
2022/04/10 02:26:32;;;;;;;;;;;;;;;;;;5078078;28;19908;-42
2022/04/10 02:28:57;;;;;;;;;;;;;;;;;;5096219;28;19912;-43
2022/04/10 02:31:22;;;;;;;;;;;;;;;;;;5095881;28;19908;-42
2022/04/10 02:33:47;;;;;;;;;;;;;;;;;;5096099;28;19915;-44
2022/04/10 02:36:16;;;;;;;;;;;;;;;;;;5096123;28;19912;-44
2022/04/10 02:38:41;;;;;;;;;;;;;;;;;;5096133;28;19908;-43
2022/04/10 02:41:06;;;;;;;;;;;;;;;;;;5095786;28;19915;-42
2022/04/10 02:43:31;;;;;;;;;;;;;;;;;;5095862;28;19915;-44
2022/04/10 02:45:56;;;;;;;;;;;;;;;;;;5095700;28;19958;-42
2022/04/10 02:48:21;;;;;;;;;;;;;;;;;;5095681;28;19908;-43
2022/04/10 02:50:47;;;;;;;;;;;;;;;;;;5095615;28;19959;-44
2022/04/10 02:53:12;;;;;;;;;;;;;;;;;;5095701;28;19977;-43
2022/04/10 02:55:37;;;;;;;;;;;;;;;;;;5095588;28;19982;-43
2022/04/10 02:58:02;;;;;;;;;;;;;;;;;;5095557;28;19966;-43
2022/04/10 03:00:27;;;;;;;;;;;;;;;;;;5095706;28;19908;-43
2022/04/10 03:02:52;;;;;;;;;;;;;;;;;;5095642;28;19908;-43
2022/04/10 03:05:17;;;;;;;;;;;;;;;;;;5095760;28;19909;-43
2022/04/10 03:07:42;;;;;;;;;;;;;;;;;;5095823;28;19993;-44
2022/04/10 03:10:08;;;;;;;;;;;;;;;;;;5077135;28;19947;-43
2022/04/10 03:12:33;;;;;;;;;;;;;;;;;;5095090;28;19916;-43
2022/04/10 03:14:58;;;;;;;;;;;;;;;;;;5094554;28;19908;-42
2022/04/10 03:17:23;;;;;;;;;;;;;;;;;;5095403;28;20007;-43
2022/04/10 03:19:48;;;;;;;;;;;;;;;;;;5095323;28;19908;-43
2022/04/10 03:22:13;;;;;;;;;;;;;;;;;;5095277;28;19955;-42
2022/04/10 03:24:39;;;;;;;;;;;;;;;;;;5095107;28;20298;-43
2022/04/10 03:27:04;;;;;;;;;;;;;;;;;;5095039;28;19999;-42
2022/04/10 03:29:29;;;;;;;;;;;;;;;;;;5095195;28;20471;-44
2022/04/10 03:31:54;;;;;;;;;;;;;;;;;;5095077;28;20332;-42
2022/04/10 03:34:19;;;;;;;;;;;;;;;;;;5094928;28;19994;-42
2022/04/10 03:36:44;;;;;;;;;;;;;;;;;;5095082;28;19912;-42
2022/04/10 03:39:09;;;;;;;;;;;;;;;;;;5095158;28;19916;-42
2022/04/10 03:41:34;;;;;;;;;;;;;;;;;;5095016;28;19931;-42
2022/04/10 03:43:59;;;;;;;;;;;;;;;;;;5095097;28;19915;-42
2022/04/10 03:46:25;;;;;;;;;;;;;;;;;;5095065;28;19947;-42
2022/04/10 03:48:50;;;;;;;;;;;;;;;;;;5094678;28;19938;-43
2022/04/10 03:51:15;;;;;;;;;;;;;;;;;;5095064;28;19912;-42
2022/04/10 03:53:40;;;;;;;;;;;;;;;;;;5095063;28;19933;-43
2022/04/10 03:56:05;;;;;;;;;;;;;;;;;;5094872;28;19912;-42
2022/04/10 03:58:30;;;;;;;;;;;;;;;;;;5094669;28;19916;-43
2022/04/10 04:00:55;;;;;;;;;;;;;;;;;;5094910;28;20355;-42
2022/04/10 04:03:20;;;;;;;;;;;;;;;;;;5094685;28;20286;-42
2022/04/10 04:05:45;;;;;;;;;;;;;;;;;;5094617;28;19991;-43
2022/04/10 04:08:11;;;;;;;;;;;;;;;;;;5094662;28;20011;-43
2022/04/10 04:10:36;;;;;;;;;;;;;;;;;;5094805;28;19912;-43
2022/04/10 04:13:01;;;;;;;;;;;;;;;;;;5094481;28;20294;-43
2022/04/10 04:15:26;;;;;;;;;;;;;;;;;;5094541;28;19962;-44
2022/04/10 04:17:51;;;;;;;;;;;;;;;;;;5094425;28;19920;-42
2022/04/10 04:20:17;;;;;;;;;;;;;;;;;;5094750;28;19935;-42
2022/04/10 04:22:42;;;;;;;;;;;;;;;;;;5095016;28;20347;-42
2022/04/10 04:25:07;;;;;;;;;;;;;;;;;;5095248;28;19908;-42
2022/04/10 04:27:32;;;;;;;;;;;;;;;;;;5098459;28;19908;-42
2022/04/10 04:29:57;;;;;;;;;;;;;;;;;;5098366;28;19908;-43
2022/04/10 04:32:22;;;;;;;;;;;;;;;;;;5098660;28;19915;-42
2022/04/10 04:34:47;;;;;;;;;;;;;;;;;;5098332;28;20367;-43
2022/04/10 04:37:13;;;;;;;;;;;;;;;;;;5098427;28;20419;-43
2022/04/10 04:39:38;;;;;;;;;;;;;;;;;;5098550;28;20374;-42
2022/04/10 04:42:03;;;;;;;;;;;;;;;;;;5098221;28;20385;-43
2022/04/10 04:44:31;;;;;;;;;;;;;;;;;;5098300;28;20374;-44
2022/04/10 04:46:56;;;;;;;;;;;;;;;;;;5098337;28;20287;-43
2022/04/10 04:49:21;;;;;;;;;;;;;;;;;;5097928;28;20034;-47
2022/04/10 04:51:46;;;;;;;;;;;;;;;;;;5098331;28;20260;-43
2022/04/10 04:54:11;;;;;;;;;;;;;;;;;;5098133;28;19915;-43
2022/04/10 04:56:36;;;;;;;;;;;;;;;;;;5097981;28;19916;-43
2022/04/10 04:59:01;;;;;;;;;;;;;;;;;;5097965;28;19908;-43
2022/04/10 05:01:27;;;;;;;;;;;;;;;;;;5097992;28;20006;-44
2022/04/10 05:03:52;;;;;;;;;;;;;;;;;;5097863;28;19915;-44
2022/04/10 05:06:17;;;;;;;;;;;;;;;;;;5097810;28;19908;-43
2022/04/10 05:08:42;;;;;;;;;;;;;;;;;;5079465;28;19908;-43
2022/04/10 05:11:11;;;;;;;;;;;;;;;;;;5097460;28;19915;-43
2022/04/10 05:13:36;;;;;;;;;;;;;;;;;;5097260;28;20453;-43
2022/04/10 05:16:01;;;;;;;;;;;;;;;;;;5097392;28;19947;-43
2022/04/10 05:18:26;;;;;;;;;;;;;;;;;;5097317;28;19992;-43
2022/04/10 05:20:51;;;;;;;;;;;;;;;;;;5097441;28;19948;-43
2022/04/10 05:23:16;;;;;;;;;;;;;;;;;;5097455;28;19956;-43
2022/04/10 05:25:41;;;;;;;;;;;;;;;;;;5097405;28;20260;-44
2022/04/10 05:28:06;;;;;;;;;;;;;;;;;;5097413;28;19908;-44
2022/04/10 05:30:31;;;;;;;;;;;;;;;;;;5097177;28;19908;-43
2022/04/10 05:32:57;;;;;;;;;;;;;;;;;;5097260;28;19912;-44
2022/04/10 05:35:22;;;;;;;;;;;;;;;;;;5097457;28;19908;-43
2022/04/10 05:37:47;;;;;;;;;;;;;;;;;;5096577;28;20290;-43
2022/04/10 05:40:12;;;;;;;;;;;;;;;;;;5097249;28;19991;-43
2022/04/10 05:42:37;;;;;;;;;;;;;;;;;;5097121;28;19919;-44
2022/04/10 05:45:02;;;;;;;;;;;;;;;;;;5097181;28;19958;-44
2022/04/10 05:47:27;;;;;;;;;;;;;;;;;;5097129;28;19959;-43
2022/04/10 05:49:52;;;;;;;;;;;;;;;;;;5096743;28;19915;-43
2022/04/10 05:52:18;;;;;;;;;;;;;;;;;;5096986;28;20313;-43
2022/04/10 05:54:43;;;;;;;;;;;;;;;;;;5096673;28;19954;-43
2022/04/10 05:57:08;;;;;;;;;;;;;;;;;;5096906;28;19912;-43
2022/04/10 05:59:33;;;;;;;;;;;;;;;;;;5096737;28;20466;-43
2022/04/10 06:01:58;;;;;;;;;;;;;;;;;;5096751;28;20003;-43
2022/04/10 06:04:23;;;;;;;;;;;;;;;;;;5097407;28;19908;-44
2022/04/10 06:06:48;;;;;;;;;;;;;;;;;;5097348;28;19909;-43
2022/04/10 06:09:14;;;;;;;;;;;;;;;;;;5096603;28;19915;-43
2022/04/10 06:11:39;;;;;;;;;;;;;;;;;;5096253;28;20354;-43
2022/04/10 06:14:04;;;;;;;;;;;;;;;;;;5096255;28;19945;-43
2022/04/10 06:16:30;;;;;;;;;;;;;;;;;;5096323;28;20006;-44
2022/04/10 06:18:56;;;;;;;;;;;;;;;;;;5101205;28;19919;-43
2022/04/10 06:21:21;;;;;;;;;;;;;;;;;;5116151;28;19913;-43
2022/04/10 06:23:46;;;;;;;;;;;;;;;;;;5116715;28;19908;-43
2022/04/10 06:26:11;;;;;;;;;;;;;;;;;;5115760;28;19915;-43
2022/04/10 06:28:36;;;;;;;;;;;;;;;;;;5116293;28;19912;-43
2022/04/10 06:31:01;;;;;;;;;;;;;;;;;;5102399;28;19947;-44
2022/04/10 06:33:26;;;;;;;;;;;;;;;;;;5108006;28;20363;-43
2022/04/10 06:35:54;;;;;;;;;;;;;;;;;;5103021;28;19911;-42
2022/04/10 06:38:19;;;;;;;;;;;;;;;;;;5113602;28;19919;-43
2022/04/10 06:40:47;;;;;;;;;;;;;;;;;;5108813;27;19912;-42
2022/04/10 06:43:12;;;;;;;;;;;;;;;;;;5108937;28;19916;-42
2022/04/10 06:45:37;;;;;;;;;;;;;;;;;;5107037;28;19922;-42
2022/04/10 06:48:02;;;;;;;;;;;;;;;;;;5099039;28;19923;-42
2022/04/10 06:50:28;;;;;;;;;;;;;;;;;;5105872;28;20281;-42
2022/04/10 06:52:53;;;;;;;;;;;;;;;;;;5102817;28;19920;-42
2022/04/10 06:55:18;;;;;;;;;;;;;;;;;;5090352;28;19920;-42
2022/04/10 06:57:43;;;;;;;;;;;;;;;;;;5087466;28;19924;-43
2022/04/10 07:00:08;;;;;;;;;;;;;;;;;;5078339;28;19919;-42
2022/04/10 07:02:33;;;;;;;;;;;;;;;;;;5067933;28;19919;-42
2022/04/10 07:04:58;;;;;;;;;;;;;;;;;;5069957;28;19956;-42
2022/04/10 07:07:24;;;;;;;;;;;;;;;;;;5089685;28;19920;-42
2022/04/10 07:09:49;;;;;;;;;;;;;;;;;;5091222;28;19920;-43
2022/04/10 07:12:14;;;;;;;;;;;;;;;;;;5093514;28;19917;-43
2022/04/10 07:14:39;;;;;;;;;;;;;;;;;;5092031;28;19919;-43
2022/04/10 07:17:05;;;;;;;;;;;;;;;;;;5093326;28;19927;-42
2022/04/10 07:19:30;;;;;;;;;;;;;;;;;;5090174;28;20035;-44
2022/04/10 07:24:39;;;;;;;;;;;;;;;;;;5092362;28;20010;-44
2022/04/10 07:27:05;;;;;;;;;;;;;;;;;;5078484;28;20019;-44
2022/04/10 07:29:30;;;;;;;;;;;;;;;;;;5087706;28;20017;-43
2022/04/10 07:31:55;;;;;;;;;;;;;;;;;;5092489;28;19920;-43
2022/04/10 07:34:20;;;;;;;;;;;;;;;;;;5087477;28;19926;-42
2022/04/10 07:36:45;;;;;;;;;;;;;;;;;;5094311;28;19927;-43
2022/04/10 07:39:10;;;;;;;;;;;;;;;;;;5095361;28;19989;-42
2022/04/10 07:41:35;;;;;;;;;;;;;;;;;;5091562;28;19919;-43
2022/04/10 07:44:01;;;;;;;;;;;;;;;;;;5096624;28;19927;-42
2022/04/10 07:49:10;;;;;;;;;;;;;;;;;;5096093;28;19919;-44
2022/04/10 07:51:35;;;;;;;;;;;;;;;;;;5085126;28;19920;-44
2022/04/10 07:54:00;;;;;;;;;;;;;;;;;;5091834;28;19926;-43
2022/04/10 07:56:25;;;;;;;;;;;;;;;;;;5095942;28;19926;-45
2022/04/10 07:58:50;;;;;;;;;;;;;;;;;;5097949;28;19986;-44
2022/04/10 08:01:15;;;;;;;;;;;;;;;;;;5095127;28;19922;-43
2022/04/10 08:03:40;;;;;;;;;;;;;;;;;;5095717;28;20358;-43
2022/04/10 08:06:06;;;;;;;;;;;;;;;;;;5097725;27;19950;-43
2022/04/10 08:08:31;;;;;;;;;;;;;;;;;;5101127;28;20351;-43
2022/04/10 08:10:56;;;;;;;;;;;;;;;;;;5096249;28;19915;-44
2022/04/10 08:13:21;;;;;;;;;;;;;;;;;;5101584;28;20370;-43
2022/04/10 08:15:47;;;;;;;;;;;;;;;;;;5102917;28;20022;-44
2022/04/10 08:18:12;;;;;;;;;;;;;;;;;;5100933;28;19927;-43
2022/04/10 08:20:37;;;;;;;;;;;;;;;;;;5098356;28;20298;-44
2022/04/10 08:23:03;;;;;;;;;;;;;;;;;;5101051;28;19920;-43
2022/04/10 08:25:28;;;;;;;;;;;;;;;;;;5097331;28;20020;-43
2022/04/10 08:27:54;;;;;;;;;;;;;;;;;;5091290;28;19920;-43
2022/04/10 08:30:19;;;;;;;;;;;;;;;;;;5097404;28;20010;-42
2022/04/10 08:32:44;;;;;;;;;;;;;;;;;;5101292;28;19912;-44
2022/04/10 08:35:09;;;;;;;;;;;;;;;;;;5099570;28;20026;-43
2022/04/10 08:37:34;;;;;;;;;;;;;;;;;;5093884;28;20007;-43
2022/04/10 08:39:59;;;;;;;;;;;;;;;;;;5095543;27;19919;-47
2022/04/10 08:42:24;;;;;;;;;;;;;;;;;;5100568;28;19912;-43
2022/04/10 08:44:49;;;;;;;;;;;;;;;;;;5100113;28;20003;-44
2022/04/10 08:47:20;;;;;;;;;;;;;;;;;;5083201;28;21474;-43
2022/04/10 08:49:45;;;;;;;;;;;;;;;;;;5090588;28;19931;-44
2022/04/10 08:52:10;;;;;;;;;;;;;;;;;;5098013;27;19924;-43
2022/04/10 08:54:35;;;;;;;;;;;;;;;;;;5092072;28;20287;-44
2022/04/10 08:57:03;;;;;;;;;;;;;;;;;;5089071;28;20374;-44
2022/04/10 08:59:28;;;;;;;;;;;;;;;;;;5095684;28;19920;-44
2022/04/10 09:01:53;;;;;;;;;;;;;;;;;;5085845;28;20697;-45
2022/04/10 09:04:20;;;;;;;;;;;;;;;;;;5082544;28;19920;-42
2022/04/10 09:06:45;;;;;;;;;;;;;;;;;;5096874;27;19938;-44
2022/04/10 09:09:11;;;;;;;;;;;;;;;;;;5079320;28;19916;-43
2022/04/10 09:11:38;;;;;;;;;;;;;;;;;;5094736;28;19912;-43
2022/04/10 09:14:03;;;;;;;;;;;;;;;;;;5100058;28;19928;-42
2022/04/10 09:16:29;;;;;;;;;;;;;;;;;;5096024;28;19930;-43
2022/04/10 09:18:58;;;;;;;;;;;;;;;;;;5100687;28;20704;-44
2022/04/10 09:21:23;;;;;;;;;;;;;;;;;;5099599;28;19919;-43
2022/04/10 09:23:48;;;;;;;;;;;;;;;;;;5099402;28;19919;-43
2022/04/10 09:26:13;;;;;;;;;;;;;;;;;;5100920;28;20253;-44
2022/04/10 09:28:38;;;;;;;;;;;;;;;;;;5100589;28;20381;-43
2022/04/10 09:31:04;;;;;;;;;;;;;;;;;;5082538;28;19927;-45
2022/04/10 09:33:29;;;;;;;;;;;;;;;;;;5101643;28;19936;-43
2022/04/10 09:35:54;;;;;;;;;;;;;;;;;;5096211;27;20310;-43
2022/04/10 09:38:19;;;;;;;;;;;;;;;;;;5097109;28;19912;-43
2022/04/10 09:40:44;;;;;;;;;;;;;;;;;;5096350;28;20080;-44
2022/04/10 09:43:10;;;;;;;;;;;;;;;;;;5094532;28;20067;-45
2022/04/10 09:45:36;;;;;;;;;;;;;;;;;;5096364;28;20437;-45
2022/04/10 09:48:01;;;;;;;;;;;;;;;;;;5099202;28;20033;-43
2022/04/10 09:50:26;;;;;;;;;;;;;;;;;;5092003;28;19920;-44
2022/04/10 09:52:51;;;;;;;;;;;;;;;;;;5094140;28;20358;-44
2022/04/10 09:55:16;;;;;;;;;;;;;;;;;;5090919;27;19919;-43
2022/04/10 09:57:41;;;;;;;;;;;;;;;;;;5092472;28;19923;-44
2022/04/10 10:00:06;;;;;;;;;;;;;;;;;;5093207;28;19920;-44
2022/04/10 10:02:31;;;;;;;;;;;;;;;;;;5094427;28;19978;-43
2022/04/10 10:04:57;;;;;;;;;;;;;;;;;;5102873;28;20010;-44
2022/04/10 10:07:22;;;;;;;;;;;;;;;;;;5097938;28;19927;-44
2022/04/10 10:09:48;;;;;;;;;;;;;;;;;;5101296;28;19916;-43
2022/04/10 10:12:13;;;;;;;;;;;;;;;;;;5082647;28;19916;-44
2022/04/10 10:14:41;;;;;;;;;;;;;;;;;;5105634;28;20363;-43
2022/04/10 10:17:06;;;;;;;;;;;;;;;;;;5096382;27;19923;-43
2022/04/10 10:19:34;;;;;;;;;;;;;;;;;;5096466;27;20320;-44
2022/04/10 10:21:59;;;;;;;;;;;;;;;;;;5092364;28;19916;-43
2022/04/10 10:24:24;;;;;;;;;;;;;;;;;;5098319;28;19954;-44
2022/04/10 10:26:49;;;;;;;;;;;;;;;;;;5100298;28;19968;-43
2022/04/10 10:29:14;;;;;;;;;;;;;;;;;;5107731;28;19927;-44
2022/04/10 10:31:39;;;;;;;;;;;;;;;;;;5101829;28;19919;-43
2022/04/10 10:34:04;;;;;;;;;;;;;;;;;;5101808;28;20339;-44
2022/04/10 10:36:31;;;;;;;;;;;;;;;;;;5100087;28;19919;-44
2022/04/10 10:38:56;;;;;;;;;;;;;;;;;;5090199;28;20002;-44
2022/04/10 10:41:21;;;;;;;;;;;;;;;;;;5097440;28;20032;-45
2022/04/10 10:43:46;;;;;;;;;;;;;;;;;;5102087;28;20408;-44
2022/04/10 10:46:11;;;;;;;;;;;;;;;;;;5082932;28;19955;-45
2022/04/10 10:48:38;;;;;;;;;;;;;;;;;;5089479;28;19919;-43
2022/04/10 10:51:03;;;;;;;;;;;;;;;;;;5084389;28;19926;-44
2022/04/10 10:53:29;;;;;;;;;;;;;;;;;;5090889;28;19917;-42
2022/04/10 10:55:54;;;;;;;;;;;;;;;;;;5092192;28;19920;-42
2022/04/10 10:58:19;;;;;;;;;;;;;;;;;;5092113;28;19953;-42
2022/04/10 11:00:44;;;;;;;;;;;;;;;;;;5095349;28;20239;-43
2022/04/10 11:03:09;;;;;;;;;;;;;;;;;;5092445;28;19945;-43
2022/04/10 11:05:35;;;;;;;;;;;;;;;;;;5094401;28;19919;-43
2022/04/10 11:08:00;;;;;;;;;;;;;;;;;;5097375;28;20007;-43
2022/04/10 11:10:29;;;;;;;;;;;;;;;;;;5097128;28;20011;-43
2022/04/10 11:12:54;;;;;;;;;;;;;;;;;;5094565;28;21837;-42
2022/04/10 11:15:19;;;;;;;;;;;;;;;;;;5085441;28;19955;-42
2022/04/10 11:17:45;;;;;;;;;;;;;;;;;;5067767;28;20010;-44
2022/04/10 11:20:11;;;;;;;;;;;;;;;;;;5085329;28;19952;-44
2022/04/10 11:22:37;;;;;;;;;;;;;;;;;;5089693;28;19919;-44
2022/04/10 11:25:02;;;;;;;;;;;;;;;;;;5094368;28;20321;-43
2022/04/10 11:27:27;;;;;;;;;;;;;;;;;;5091813;28;19919;-43
2022/04/10 11:29:52;;;;;;;;;;;;;;;;;;5097537;28;19912;-43
2022/04/10 11:32:18;;;;;;;;;;;;;;;;;;5094798;28;19920;-43
2022/04/10 11:34:43;;;;;;;;;;;;;;;;;;5096643;28;19963;-43
2022/04/10 11:37:09;;;;;;;;;;;;;;;;;;5097773;28;19950;-43
2022/04/10 11:39:34;;;;;;;;;;;;;;;;;;5098446;28;20033;-45
2022/04/10 11:41:59;;;;;;;;;;;;;;;;;;5099357;28;19918;-43
2022/04/10 11:44:25;;;;;;;;;;;;;;;;;;5098710;28;19994;-43
2022/04/10 11:46:50;;;;;;;;;;;;;;;;;;5098724;28;20400;-44
2022/04/10 11:49:15;;;;;;;;;;;;;;;;;;5094561;28;20458;-43
2022/04/10 11:51:40;;;;;;;;;;;;;;;;;;5099542;28;20450;-44
2022/04/10 11:54:05;;;;;;;;;;;;;;;;;;5099144;28;19911;-44
2022/04/10 11:56:30;;;;;;;;;;;;;;;;;;5100424;28;19950;-43
2022/04/10 11:58:56;;;;;;;;;;;;;;;;;;5095301;28;19926;-45
2022/04/10 12:01:21;;;;;;;;;;;;;;;;;;5098637;28;19960;-44
2022/04/10 12:03:46;;;;;;;;;;;;;;;;;;5097944;28;19919;-44
2022/04/10 12:06:11;;;;;;;;;;;;;;;;;;5097376;28;19908;-43
2022/04/10 12:08:37;;;;;;;;;;;;;;;;;;5097688;28;19949;-43
2022/04/10 12:11:02;;;;;;;;;;;;;;;;;;5100053;28;19963;-43
2022/04/10 12:13:27;;;;;;;;;;;;;;;;;;5086879;22;19983;-45
2022/04/10 12:15:53;;;;;;;;;;;;;;;;;;5064415;28;21397;-43
2022/04/10 12:18:21;;;;;;;;;;;;;;;;;;5061796;28;19924;-45
2022/04/10 12:20:46;;;;;;;;;;;;;;;;;;5055885;28;20291;-43
2022/04/10 12:23:11;;;;;;;;;;;;;;;;;;5068264;28;19920;-43
2022/04/10 12:25:36;;;;;;;;;;;;;;;;;;5055287;28;19991;-43
2022/04/10 12:28:01;;;;;;;;;;;;;;;;;;5063499;28;20363;-43
2022/04/10 12:30:27;;;;;;;;;;;;;;;;;;5052103;28;20334;-43
2022/04/10 12:32:52;;;;;;;;;;;;;;;;;;5056356;28;19937;-44
2022/04/10 12:35:17;;;;;;;;;;;;;;;;;;5058251;28;19920;-43
2022/04/10 12:37:42;;;;;;;;;;;;;;;;;;5053521;28;20420;-45
2022/04/10 12:40:08;;;;;;;;;;;;;;;;;;5056458;28;20555;-44
2022/04/10 12:42:33;;;;;;;;;;;;;;;;;;5052615;28;19920;-43
2022/04/10 12:44:58;;;;;;;;;;;;;;;;;;5064121;28;20294;-43
2022/04/10 12:47:24;;;;;;;;;;;;;;;;;;5059046;28;19913;-43
2022/04/10 12:49:49;;;;;;;;;;;;;;;;;;5060501;28;19913;-44
2022/04/10 12:52:14;;;;;;;;;;;;;;;;;;5061494;28;19917;-44
2022/04/10 12:54:39;;;;;;;;;;;;;;;;;;5058525;28;20383;-43
2022/04/10 12:57:04;;;;;;;;;;;;;;;;;;5060515;28;20003;-43
2022/04/10 12:59:29;;;;;;;;;;;;;;;;;;5040744;28;20005;-44
2022/04/10 13:01:56;;;;;;;;;;;;;;;;;;5032300;28;19920;-43
2022/04/10 13:04:21;;;;;;;;;;;;;;;;;;5039403;28;19928;-43
2022/04/10 13:06:47;;;;;;;;;;;;;;;;;;5056332;28;19920;-45
2022/04/10 13:09:12;;;;;;;;;;;;;;;;;;5050824;28;21313;-42
2022/04/10 13:11:37;;;;;;;;;;;;;;;;;;5044320;28;19913;-44
2022/04/10 13:14:03;;;;;;;;;;;;;;;;;;5048511;28;20023;-43
2022/04/10 13:16:28;;;;;;;;;;;;;;;;;;5045049;28;19958;-43
2022/04/10 13:18:53;;;;;;;;;;;;;;;;;;5050958;28;19924;-42
2022/04/10 13:21:18;;;;;;;;;;;;;;;;;;5054710;28;19921;-43
2022/04/10 13:23:43;;;;;;;;;;;;;;;;;;5056614;28;19913;-43
2022/04/10 13:26:08;;;;;;;;;;;;;;;;;;5054079;28;20367;-45
2022/04/10 13:28:33;;;;;;;;;;;;;;;;;;5052641;28;19920;-44
2022/04/10 13:30:59;;;;;;;;;;;;;;;;;;5056780;28;19946;-45
2022/04/10 13:33:24;;;;;;;;;;;;;;;;;;5057050;28;19913;-45
2022/04/10 13:35:49;;;;;;;;;;;;;;;;;;5061410;28;19912;-42
2022/04/10 13:38:14;;;;;;;;;;;;;;;;;;5061428;28;20387;-43
2022/04/10 13:40:39;;;;;;;;;;;;;;;;;;5059332;28;20276;-43
2022/04/10 13:43:04;;;;;;;;;;;;;;;;;;5058983;28;19920;-44
2022/04/10 13:45:29;;;;;;;;;;;;;;;;;;5064039;28;19917;-44
2022/04/10 13:47:54;;;;;;;;;;;;;;;;;;5037788;28;19927;-43
2022/04/10 13:50:19;;;;;;;;;;;;;;;;;;5059367;28;19919;-44
2022/04/10 13:52:45;;;;;;;;;;;;;;;;;;5055890;28;20379;-43
2022/04/10 13:55:10;;;;;;;;;;;;;;;;;;5056365;28;19912;-44
2022/04/10 13:57:35;;;;;;;;;;;;;;;;;;5054158;28;19974;-42
2022/04/10 14:00:00;;;;;;;;;;;;;;;;;;5059204;28;19971;-43
2022/04/10 14:02:26;;;;;;;;;;;;;;;;;;5054491;28;19913;-45
2022/04/10 14:04:51;;;;;;;;;;;;;;;;;;5056658;28;19948;-43
2022/04/10 14:07:16;;;;;;;;;;;;;;;;;;5058044;28;19921;-43
2022/04/10 14:09:41;;;;;;;;;;;;;;;;;;5059884;28;19921;-44
2022/04/10 14:12:06;;;;;;;;;;;;;;;;;;5063923;28;19912;-43
2022/04/10 14:14:31;;;;;;;;;;;;;;;;;;5058149;28;19928;-43
2022/04/10 14:16:56;;;;;;;;;;;;;;;;;;5063884;28;19924;-43
2022/04/10 14:19:21;;;;;;;;;;;;;;;;;;5058427;28;19917;-45
2022/04/10 14:21:47;;;;;;;;;;;;;;;;;;5061328;28;19973;-45
2022/04/10 14:24:12;;;;;;;;;;;;;;;;;;5058068;28;20004;-45
2022/04/10 14:26:37;;;;;;;;;;;;;;;;;;5060074;28;20297;-44
2022/04/10 14:29:02;;;;;;;;;;;;;;;;;;5055845;28;20332;-46
2022/04/10 14:31:27;;;;;;;;;;;;;;;;;;5057481;28;20306;-44
2022/04/10 14:33:52;;;;;;;;;;;;;;;;;;5050650;28;20434;-43
2022/04/10 14:36:17;;;;;;;;;;;;;;;;;;5058508;28;19921;-44
2022/04/10 14:38:43;;;;;;;;;;;;;;;;;;5053142;28;19927;-44
2022/04/10 14:41:08;;;;;;;;;;;;;;;;;;5044723;28;20059;-44
2022/04/10 14:43:33;;;;;;;;;;;;;;;;;;5063602;28;19928;-43
2022/04/10 14:45:58;;;;;;;;;;;;;;;;;;5065944;28;19919;-43
2022/04/10 14:48:24;;;;;;;;;;;;;;;;;;5060419;28;19974;-43
2022/04/10 14:50:51;;;;;;;;;;;;;;;;;;5057897;28;19958;-43
2022/04/10 14:53:17;;;;;;;;;;;;;;;;;;5061619;28;19916;-43
2022/04/10 14:55:42;;;;;;;;;;;;;;;;;;5064342;28;20480;-44
2022/04/10 14:58:07;;;;;;;;;;;;;;;;;;5059926;28;19927;-43
2022/04/10 15:00:32;;;;;;;;;;;;;;;;;;5062972;28;20279;-45
2022/04/10 15:02:58;;;;;;;;;;;;;;;;;;5050441;28;20290;-44
2022/04/10 15:05:24;;;;;;;;;;;;;;;;;;5066052;28;19913;-43
2022/04/10 15:07:52;;;;;;;;;;;;;;;;;;5064357;28;19966;-43
2022/04/10 15:10:17;;;;;;;;;;;;;;;;;;5073486;28;20294;-44
2022/04/10 15:12:42;;;;;;;;;;;;;;;;;;5068472;28;19916;-44
2022/04/10 15:15:07;;;;;;;;;;;;;;;;;;5053626;28;20387;-45
2022/04/10 15:17:32;;;;;;;;;;;;;;;;;;5059361;28;20368;-44
2022/04/10 15:19:57;;;;;;;;;;;;;;;;;;5074560;28;19908;-44
2022/04/10 15:22:23;;;;;;;;;;;;;;;;;;5074446;28;19908;-44
2022/04/10 15:24:48;;;;;;;;;;;;;;;;;;5074743;28;19913;-43
2022/04/10 15:27:15;;;;;;;;;;;;;;;;;;5074647;28;19912;-43
2022/04/10 15:29:40;;;;;;;;;;;;;;;;;;5074425;28;19978;-44
2022/04/10 15:32:05;;;;;;;;;;;;;;;;;;5074479;28;19908;-43
2022/04/10 15:34:30;;;;;;;;;;;;;;;;;;5074631;28;20417;-45
2022/04/10 15:36:55;;;;;;;;;;;;;;;;;;5074294;28;19916;-42
2022/04/10 15:39:20;;;;;;;;;;;;;;;;;;5074413;28;19991;-43
2022/04/10 15:41:46;;;;;;;;;;;;;;;;;;5074370;28;19962;-43
2022/04/10 15:44:11;;;;;;;;;;;;;;;;;;5074529;28;19909;-44
2022/04/10 15:46:36;;;;;;;;;;;;;;;;;;5074382;28;19927;-43
2022/04/10 15:49:01;;;;;;;;;;;;;;;;;;5074242;28;19909;-44
2022/04/10 15:51:26;;;;;;;;;;;;;;;;;;5074368;28;20003;-42
2022/04/10 15:53:51;;;;;;;;;;;;;;;;;;5074413;28;20007;-43
2022/04/10 15:56:16;;;;;;;;;;;;;;;;;;5074170;28;20003;-43
2022/04/10 15:58:42;;;;;;;;;;;;;;;;;;5074371;28;19908;-44
2022/04/10 16:01:07;;;;;;;;;;;;;;;;;;5074531;28;19927;-42
2022/04/10 16:03:32;;;;;;;;;;;;;;;;;;5074316;28;19916;-42
2022/04/10 16:05:57;;;;;;;;;;;;;;;;;;5074515;28;19913;-43
2022/04/10 16:08:22;;;;;;;;;;;;;;;;;;5074139;28;20272;-42
2022/04/10 16:10:47;;;;;;;;;;;;;;;;;;5074119;28;19999;-43
2022/04/10 16:13:13;;;;;;;;;;;;;;;;;;5073933;28;19920;-43
2022/04/10 16:15:38;;;;;;;;;;;;;;;;;;5074006;28;19915;-43
2022/04/10 16:18:04;;;;;;;;;;;;;;;;;;5073946;28;20442;-43
2022/04/10 16:20:29;;;;;;;;;;;;;;;;;;5074354;28;20025;-43
2022/04/10 16:22:54;;;;;;;;;;;;;;;;;;5077957;28;20379;-42
2022/04/10 16:25:19;;;;;;;;;;;;;;;;;;5078096;28;19912;-43
2022/04/10 16:30:29;;;;;;;;;;;;;;;;;;5077766;28;20386;-42
2022/04/10 16:32:55;;;;;;;;;;;;;;;;;;5077774;28;19912;-42
2022/04/10 16:35:21;;;;;;;;;;;;;;;;;;5077604;28;19951;-42
2022/04/10 16:37:46;;;;;;;;;;;;;;;;;;5077431;28;20417;-42
2022/04/10 16:40:11;;;;;;;;;;;;;;;;;;5074060;28;19917;-42